Time;durP1;ratioP1;P1;durP2;ratioP2;P2;SDS_P1;SDS_P2;PMS_P1;PMS_P2;Temp;Humidity;BMP_temperature;BMP_pressure;BME280_temperature;BME280_humidity;BME280_pressure;Samples;Min_cycle;Max_cycle;Signal;HPM_P1;HPM_P2
2022/07/06 00:00:16;;;;;;;15.93;2.00;;;23.20;49.80;;;-142.21;54.32;112049.66;5113914;28;20324;-79
2022/07/06 00:02:44;;;;;;;2.83;2.10;;;23.20;49.80;;;-142.21;54.05;112049.66;5114305;28;20242;-77
2022/07/06 00:05:11;;;;;;;2.50;2.30;;;23.20;49.80;;;-142.21;54.20;112049.66;5113849;28;20207;-78
2022/07/06 00:07:38;;;;;;;2.17;1.97;;;23.20;49.70;;;-142.21;55.79;112049.66;5114648;28;20214;-78
2022/07/06 00:10:08;;;;;;;3.10;2.03;;;23.20;50.30;;;-142.21;56.92;112049.66;5113739;28;20244;-78
2022/07/06 00:12:37;;;;;;;2.60;2.10;;;23.10;50.70;;;-142.21;59.45;112049.66;5114256;28;20314;-76
2022/07/06 00:15:05;;;;;;;2.30;2.10;;;23.10;51.30;;;-142.21;59.09;112049.66;5114334;28;20267;-78
2022/07/06 00:17:32;;;;;;;2.33;2.13;;;23.10;51.30;;;-142.21;59.47;112049.66;5113186;28;20200;-78
2022/07/06 00:20:00;;;;;;;5.13;2.60;;;23.00;51.40;;;-142.21;60.41;112049.66;5114110;28;20262;-77
2022/07/06 00:22:27;;;;;;;5.50;2.30;;;22.90;52.00;;;-142.21;61.55;112049.66;5113322;28;20727;-77
2022/07/06 00:24:54;;;;;;;4.67;2.30;;;22.80;51.70;;;-142.21;62.90;112049.66;5114020;28;20625;-78
2022/07/06 00:27:25;;;;;;;2.97;2.30;;;22.70;52.00;;;-142.21;63.97;112049.66;5113356;28;20200;-77
2022/07/06 00:29:53;;;;;;;2.80;2.40;;;22.70;52.30;;;-142.21;65.20;112049.66;5113904;28;20216;-77
2022/07/06 00:32:20;;;;;;;2.93;2.07;;;22.70;52.60;;;-142.21;64.76;112049.66;5112733;28;20310;-77
2022/07/06 00:34:48;;;;;;;2.70;2.30;;;22.60;52.50;;;-142.21;64.92;112049.66;5113548;28;20214;-78
2022/07/06 00:37:15;;;;;;;2.40;2.17;;;22.60;52.60;;;-142.21;65.77;112049.66;5113306;28;20280;-78
2022/07/06 00:39:42;;;;;;;4.47;2.33;;;22.50;53.00;;;-142.21;66.17;112049.66;5113422;28;20206;-77
2022/07/06 00:42:10;;;;;;;2.17;1.93;;;22.50;53.10;;;-142.21;66.46;112049.66;5113780;28;20287;-77
2022/07/06 00:44:37;;;;;;;2.60;2.13;;;22.50;53.30;;;-142.21;65.85;112049.66;5095497;28;20207;-78
2022/07/06 00:47:07;;;;;;;4.70;2.47;;;22.40;53.10;;;-142.21;66.41;112049.66;5113486;28;20250;-78
2022/07/06 00:52:20;;;;;;;3.37;2.23;;;22.20;53.20;;;-142.21;65.93;112049.66;5112900;28;20215;-78
2022/07/06 00:54:48;;;;;;;2.33;2.00;;;22.00;53.30;;;-142.21;66.77;112049.66;5113379;28;20752;-78
2022/07/06 00:57:16;;;;;;;2.83;2.47;;;22.00;53.50;;;-142.21;67.39;112049.66;5112918;28;20622;-79
2022/07/06 00:59:44;;;;;;;4.07;2.30;;;22.00;53.80;;;-142.21;68.07;112049.66;5113157;28;20207;-78
2022/07/06 01:02:13;;;;;;;2.43;2.23;;;22.00;54.00;;;-142.21;67.76;112049.66;5113154;28;20671;-78
2022/07/06 01:04:40;;;;;;;3.00;2.07;;;22.00;53.80;;;-142.21;67.38;112049.66;5113002;28;20667;-76
2022/07/06 01:07:07;;;;;;;5.10;2.47;;;22.00;53.70;;;-142.21;67.37;112049.66;5112951;28;20239;-78
2022/07/06 01:09:35;;;;;;;2.50;2.30;;;22.00;53.70;;;-142.21;67.63;112049.66;5112370;28;20322;-78
2022/07/06 01:12:02;;;;;;;2.37;2.13;;;21.90;53.80;;;-142.21;68.25;112049.66;5112840;28;20199;-76
2022/07/06 01:14:29;;;;;;;4.60;2.20;;;21.90;53.90;;;-142.21;68.15;112049.66;5112223;28;20720;-78
2022/07/06 01:16:57;;;;;;;2.60;2.40;;;21.90;54.00;;;-142.21;68.39;112049.66;5113448;28;20210;-77
2022/07/06 01:19:25;;;;;;;2.27;2.07;;;21.90;54.00;;;-142.21;69.44;112049.66;5112174;28;20204;-77
2022/07/06 01:21:54;;;;;;;3.50;2.30;;;21.90;54.10;;;-142.21;69.49;112049.66;5112481;28;20239;-78
2022/07/06 01:24:22;;;;;;;2.10;2.00;;;21.80;54.20;;;-142.21;69.39;112049.66;5112296;28;20643;-77
2022/07/06 01:26:49;;;;;;;2.83;2.33;;;21.80;54.20;;;-142.21;70.39;112049.66;5113082;28;20203;-78
2022/07/06 01:29:16;;;;;;;4.37;2.23;;;21.80;54.80;;;-142.21;70.47;112049.66;5111959;28;20690;-78
2022/07/06 01:31:48;;;;;;;2.83;2.00;;;21.80;54.60;;;-142.21;71.08;112049.66;5113090;28;20246;-78
2022/07/06 01:34:17;;;;;;;3.23;2.20;;;21.70;54.60;;;-142.21;70.65;112049.66;5112009;28;20216;-79
2022/07/06 01:36:48;;;;;;;2.40;2.10;;;21.70;54.70;;;-142.21;70.83;112049.66;5112924;28;20218;-78
2022/07/06 01:39:17;;;;;;;2.80;2.43;;;21.70;54.70;;;-142.21;69.41;112049.66;5112731;28;20226;-77
2022/07/06 01:41:45;;;;;;;2.77;2.50;;;21.70;54.30;;;-142.21;70.91;112049.66;5112286;28;20242;-79
2022/07/06 01:44:12;;;;;;;3.60;2.60;;;21.70;54.60;;;-142.21;70.41;112049.66;5112619;28;20279;-79
2022/07/06 01:46:40;;;;;;;3.80;2.40;;;21.70;54.60;;;-142.21;71.01;112049.66;5112073;28;20211;-78
2022/07/06 01:49:07;;;;;;;2.93;2.23;;;21.60;54.50;;;-142.21;70.94;112049.66;5112507;28;20311;-78
2022/07/06 01:51:35;;;;;;;4.87;2.60;;;21.70;54.60;;;-142.21;70.67;112049.66;5112034;28;20257;-79
2022/07/06 01:54:02;;;;;;;2.97;2.60;;;21.70;54.60;;;-142.21;71.41;112049.66;5094664;28;20220;-80
2022/07/06 01:56:30;;;;;;;2.40;2.10;;;21.60;54.90;;;-142.21;71.05;112049.66;5111943;28;20234;-78
2022/07/06 01:58:58;;;;;;;2.60;2.40;;;21.70;54.90;;;-142.21;70.38;112049.66;5092133;28;20751;-79
2022/07/06 02:01:25;;;;;;;3.70;2.67;;;21.60;54.70;;;-142.21;70.08;112049.66;5091341;28;20240;-78
2022/07/06 02:03:52;;;;;;;3.50;2.60;;;21.60;55.20;;;-142.21;70.12;112049.66;5092053;28;20212;-78
2022/07/06 02:06:20;;;;;;;2.30;2.20;;;21.60;54.60;;;-142.21;70.50;112049.66;5091361;28;20750;-77
2022/07/06 02:08:47;;;;;;;2.80;2.27;;;21.60;54.80;;;-142.21;70.57;112049.66;5092035;28;20236;-78
2022/07/06 02:11:14;;;;;;;3.93;2.67;;;21.60;54.80;;;-142.21;70.35;112049.66;5091796;28;20185;-77
2022/07/06 02:13:43;;;;;;;2.87;2.50;;;21.60;55.30;;;-142.21;70.63;112049.66;5092267;28;20228;-78
2022/07/06 02:16:11;;;;;;;3.37;2.43;;;21.50;54.70;;;-142.21;70.80;112049.66;5091815;28;20209;-78
2022/07/06 02:18:39;;;;;;;2.63;2.27;;;21.50;54.80;;;-142.21;70.52;112049.66;5091669;28;20204;-77
2022/07/06 02:21:06;;;;;;;4.03;2.43;;;21.50;54.60;;;-142.21;70.33;112049.66;5091818;28;20221;-76
2022/07/06 02:23:33;;;;;;;4.23;2.20;;;21.50;54.70;;;-142.21;71.32;112049.66;5091322;28;20253;-78
2022/07/06 02:26:01;;;;;;;3.27;2.93;;;21.40;54.80;;;-142.21;70.78;112049.66;5091932;28;20211;-78
2022/07/06 02:28:28;;;;;;;3.57;2.43;;;21.40;54.70;;;-142.21;72.00;112049.66;5091613;28;20300;-77
2022/07/06 02:30:56;;;;;;;6.00;2.80;;;21.40;55.00;;;-142.21;72.33;112049.66;5091990;28;20243;-76
2022/07/06 02:33:24;;;;;;;3.77;2.70;;;21.40;55.20;;;-142.21;72.64;112049.66;5094434;28;20228;-77
2022/07/06 02:35:51;;;;;;;4.33;2.50;;;21.40;55.40;;;-142.21;73.10;112049.66;5095560;28;20295;-78
2022/07/06 02:38:18;;;;;;;3.67;2.90;;;21.30;55.40;;;-142.21;73.17;112049.66;5095322;28;20208;-78
2022/07/06 02:40:46;;;;;;;4.20;2.40;;;21.30;55.60;;;-142.21;73.84;112049.66;5095601;28;20295;-77
2022/07/06 02:43:13;;;;;;;4.80;2.53;;;21.30;55.70;;;-142.21;74.52;112049.66;5096923;28;20200;-77
2022/07/06 02:45:40;;;;;;;3.73;2.87;;;21.20;55.80;;;-142.21;75.38;112049.66;5115492;28;20592;-77
2022/07/06 02:48:09;;;;;;;3.53;2.60;;;21.20;56.00;;;-142.21;75.91;112049.66;5115911;28;20307;-77
2022/07/06 02:50:36;;;;;;;2.97;2.67;;;21.20;56.10;;;-142.21;76.09;112049.66;5115325;28;20295;-78
2022/07/06 02:53:03;;;;;;;2.90;2.47;;;21.10;56.30;;;-142.21;76.56;112049.66;5116000;28;20643;-79
2022/07/06 02:55:30;;;;;;;3.37;2.50;;;21.10;56.30;;;-142.21;76.67;112049.66;5114770;28;20203;-77
2022/07/06 02:57:58;;;;;;;5.33;2.50;;;21.10;57.10;;;-142.21;76.80;112049.66;5115794;28;20235;-78
2022/07/06 03:00:25;;;;;;;3.57;3.27;;;21.00;56.60;;;-142.21;76.92;112049.66;5097073;28;20235;-78
2022/07/06 03:02:52;;;;;;;2.63;2.43;;;21.00;56.80;;;-142.21;77.77;112049.66;5115340;28;20758;-79
2022/07/06 03:05:21;;;;;;;2.90;2.60;;;20.90;56.80;;;-142.21;78.44;112049.66;5114839;28;20291;-79
2022/07/06 03:07:48;;;;;;;4.20;2.80;;;20.90;57.00;;;-142.21;79.14;112049.66;5115528;28;20250;-78
2022/07/06 03:10:15;;;;;;;2.83;2.30;;;20.90;57.30;;;-142.21;79.81;112049.66;5114868;28;20271;-77
2022/07/06 03:12:42;;;;;;;4.93;2.87;;;20.80;57.40;;;-142.21;80.14;112049.66;5114848;28;20210;-77
2022/07/06 03:15:12;;;;;;;3.50;2.60;;;20.70;57.80;;;-142.21;80.68;112049.66;5115251;28;20676;-79
2022/07/06 03:17:39;;;;;;;3.37;2.53;;;20.60;58.00;;;-142.21;80.95;112049.66;5114880;28;20244;-78
2022/07/06 03:20:08;;;;;;;2.80;2.60;;;20.60;57.90;;;-142.21;81.53;112049.66;5115459;28;20203;-79
2022/07/06 03:22:36;;;;;;;5.17;3.30;;;20.50;58.20;;;-142.21;81.70;112049.66;5114402;28;20292;-79
2022/07/06 03:25:05;;;;;;;5.37;2.70;;;20.50;58.20;;;-142.21;82.40;112049.66;5114757;28;20290;-79
2022/07/06 03:27:33;;;;;;;3.17;2.87;;;20.50;58.50;;;-142.21;82.19;112049.66;5114426;28;20239;-77
2022/07/06 03:30:00;;;;;;;4.63;2.47;;;20.50;58.40;;;-142.21;82.49;112049.66;5114997;28;20298;-77
2022/07/06 03:32:29;;;;;;;4.10;3.10;;;20.50;58.40;;;-142.21;82.31;112049.66;5114279;28;20203;-78
2022/07/06 03:34:56;;;;;;;2.50;2.30;;;20.50;58.40;;;-142.21;82.43;112049.66;5114764;28;20200;-78
2022/07/06 03:37:23;;;;;;;3.37;2.40;;;20.50;58.50;;;-142.21;82.50;112049.66;5114297;28;20200;-78
2022/07/06 03:39:51;;;;;;;4.43;2.67;;;20.50;58.60;;;-142.21;82.28;112049.66;5114806;28;20256;-78
2022/07/06 03:42:19;;;;;;;6.97;2.57;;;20.40;59.10;;;-142.21;82.83;112049.66;5114600;28;20656;-79
2022/07/06 03:44:46;;;;;;;4.30;2.63;;;20.40;58.50;;;-142.21;83.04;112049.66;5114037;28;20253;-79
2022/07/06 03:47:13;;;;;;;3.07;2.70;;;20.40;58.60;;;-142.21;83.34;112049.66;5114695;28;20234;-77
2022/07/06 03:49:40;;;;;;;3.27;2.93;;;20.30;58.60;;;-142.21;83.29;112049.66;5114353;28;20235;-77
2022/07/06 03:52:07;;;;;;;2.37;2.17;;;20.30;58.90;;;-142.21;84.26;112049.66;5114518;28;20242;-78
2022/07/06 03:54:34;;;;;;;2.67;2.40;;;20.30;59.10;;;-142.21;83.97;112049.66;5113872;28;20220;-79
2022/07/06 03:57:03;;;;;;;4.47;2.77;;;20.30;59.20;;;-142.21;84.00;112049.66;5114335;28;20211;-78
2022/07/06 03:59:31;;;;;;;3.57;2.40;;;20.30;59.20;;;-142.21;84.16;112049.66;5113751;28;20238;-78
2022/07/06 04:02:00;;;;;;;2.83;2.50;;;20.30;59.10;;;-142.21;84.30;112049.66;5114550;28;20286;-78
2022/07/06 04:04:27;;;;;;;4.20;2.50;;;20.30;59.20;;;-142.21;84.32;112049.66;5113979;28;20207;-77
2022/07/06 04:06:54;;;;;;;3.77;3.33;;;20.20;59.20;;;-142.21;84.50;112049.66;5113946;28;20369;-76
2022/07/06 04:09:22;;;;;;;3.33;2.57;;;20.30;59.30;;;-142.21;84.50;112049.66;5114082;28;20318;-78
2022/07/06 04:11:49;;;;;;;5.80;2.37;;;20.30;59.40;;;-142.21;84.09;112049.66;5114247;28;20291;-78
2022/07/06 04:14:17;;;;;;;2.80;2.60;;;20.30;59.30;;;-142.21;82.90;112049.66;5113935;28;20751;-80
2022/07/06 04:16:44;;;;;;;4.33;2.70;;;20.30;59.00;;;-142.21;82.38;112049.66;5093349;28;20236;-76
2022/07/06 04:19:12;;;;;;;2.43;2.10;;;20.30;58.60;;;-142.21;81.80;112049.66;5094049;28;20247;-78
2022/07/06 04:21:41;;;;;;;4.37;2.40;;;20.40;58.50;;;-142.21;83.25;112049.66;5093157;28;20208;-80
2022/07/06 04:24:08;;;;;;;2.73;2.43;;;20.40;58.80;;;-142.21;84.94;112049.66;5093757;28;20222;-78
2022/07/06 04:26:36;;;;;;;2.53;2.23;;;20.40;59.40;;;-142.21;85.23;112049.66;5093453;28;20208;-79
2022/07/06 04:29:03;;;;;;;2.43;2.13;;;20.40;59.50;;;-142.21;84.72;112049.66;5093641;28;20359;-79
2022/07/06 04:31:32;;;;;;;3.63;2.30;;;20.50;59.50;;;-142.21;84.00;112049.66;5092625;28;20668;-79
2022/07/06 04:33:59;;;;;;;3.60;1.93;;;20.50;59.10;;;-142.21;83.27;112049.66;5093490;28;20224;-78
2022/07/06 04:36:26;;;;;;;3.67;2.70;;;20.50;58.90;;;-142.21;82.85;112049.66;5108058;28;20231;-78
2022/07/06 04:38:53;;;;;;;2.23;2.00;;;20.50;59.00;;;-142.21;80.35;112049.66;5113866;28;20214;-79
2022/07/06 04:41:20;;;;;;;4.50;2.33;;;20.50;57.80;;;-142.21;80.93;112049.66;5113488;28;20303;-79
2022/07/06 04:43:48;;;;;;;12.13;4.67;;;20.60;58.20;;;-142.21;84.50;112049.66;5112883;28;20239;-79
2022/07/06 04:46:15;;;;;;;13.53;4.30;;;20.60;59.30;;;-142.21;83.53;112049.66;5113445;28;20206;-79
2022/07/06 04:48:43;;;;;;;11.87;4.43;;;20.60;59.20;;;-142.21;82.36;112049.66;5112745;28;20251;-78
2022/07/06 04:51:10;;;;;;;14.30;5.47;;;20.60;58.70;;;-142.21;84.31;112049.66;5113510;28;20306;-78
2022/07/06 04:53:38;;;;;;;17.90;5.07;;;20.60;59.20;;;-142.21;82.75;112049.66;5112976;28;20315;-77
2022/07/06 04:56:05;;;;;;;12.00;3.83;;;20.60;58.90;;;-142.21;82.58;112049.66;5095115;28;20243;-77
2022/07/06 04:58:33;;;;;;;12.93;3.77;;;20.70;58.80;;;-142.21;82.71;112049.66;5112730;28;20254;-77
2022/07/06 05:01:00;;;;;;;5.27;3.17;;;20.70;58.80;;;-142.21;81.78;112049.66;5113493;28;20242;-79
2022/07/06 05:03:27;;;;;;;5.80;2.30;;;20.70;58.40;;;-142.21;81.08;112049.66;5112527;28;20738;-77
2022/07/06 05:05:56;;;;;;;3.17;2.00;;;20.80;58.00;;;-142.21;80.17;112049.66;5112856;28;20207;-77
2022/07/06 05:08:23;;;;;;;2.73;2.10;;;20.80;58.60;;;-142.21;79.77;112049.66;5112564;28;20210;-77
2022/07/06 05:10:51;;;;;;;4.00;2.10;;;20.90;57.80;;;-142.21;80.80;112049.66;5112676;28;20215;-78
2022/07/06 05:13:19;;;;;;;2.47;1.73;;;20.90;57.80;;;-142.21;80.10;112049.66;5112726;28;20208;-77
2022/07/06 05:15:46;;;;;;;4.47;2.10;;;21.00;57.70;;;-142.21;80.18;112049.66;5112695;28;20200;-77
2022/07/06 05:18:13;;;;;;;4.03;2.07;;;21.10;57.80;;;-142.21;79.98;112049.66;5113219;28;20414;-78
2022/07/06 05:20:40;;;;;;;2.13;1.70;;;21.10;57.60;;;-142.21;79.91;112049.66;5112506;28;20242;-78
2022/07/06 05:23:09;;;;;;;1.80;1.70;;;21.10;57.50;;;-142.21;78.79;112049.66;5113088;28;20306;-78
2022/07/06 05:25:36;;;;;;;3.50;1.93;;;21.20;57.90;;;-142.21;78.52;112049.66;5112017;28;20294;-78
2022/07/06 05:28:04;;;;;;;4.00;2.20;;;21.30;57.10;;;-142.21;77.77;112049.66;5113129;28;20207;-78
2022/07/06 05:30:31;;;;;;;2.17;1.80;;;21.30;56.90;;;-142.21;76.90;112049.66;5112345;28;20228;-79
2022/07/06 05:33:00;;;;;;;3.03;2.00;;;21.30;56.70;;;-142.21;75.69;112049.66;5112553;28;20200;-78
2022/07/06 05:35:27;;;;;;;2.90;2.40;;;21.40;57.00;;;-142.21;74.71;112049.66;5112257;28;20249;-78
2022/07/06 05:37:54;;;;;;;3.67;1.90;;;21.40;56.10;;;-142.21;74.59;112049.66;5113086;28;20562;-78
2022/07/06 05:40:23;;;;;;;2.73;2.30;;;21.50;55.90;;;-142.21;74.39;112049.66;5112482;28;20207;-79
2022/07/06 05:42:50;;;;;;;2.10;1.60;;;21.50;56.00;;;-142.21;72.56;112049.66;5111526;28;20745;-65
2022/07/06 05:45:24;;;;;;;1.80;1.70;;;21.60;55.60;;;-142.21;73.29;112049.66;5112081;28;20199;-79
2022/07/06 05:50:36;;;;;;;3.53;2.13;;;21.70;55.40;;;-142.21;72.98;112049.66;5112083;28;20189;-77
2022/07/06 05:53:06;;;;;;;2.90;2.20;;;21.70;55.40;;;-142.21;72.53;112049.66;5112935;28;20241;-80
2022/07/06 05:55:35;;;;;;;6.70;1.90;;;21.70;55.30;;;-142.21;72.84;112049.66;5092427;28;20264;-78
2022/07/06 05:58:03;;;;;;;2.93;1.83;;;21.80;55.30;;;-142.21;73.24;112049.66;5112415;28;20199;-80
2022/07/06 06:00:31;;;;;;;3.47;1.77;;;21.80;55.30;;;-142.21;73.01;112049.66;5111734;28;20236;-78
2022/07/06 06:03:00;;;;;;;1.97;1.70;;;21.90;55.40;;;-142.21;72.77;112049.66;5111981;28;20235;-80
2022/07/06 06:05:27;;;;;;;3.53;1.90;;;21.90;55.20;;;-142.21;71.03;112049.66;5112723;28;20649;-77
2022/07/06 06:07:54;;;;;;;2.83;2.00;;;22.00;54.90;;;-142.21;71.43;112049.66;5114827;28;20235;-81
2022/07/06 06:10:23;;;;;;;3.43;1.90;;;22.00;54.80;;;-142.21;71.08;112049.66;5116005;28;20239;-78
2022/07/06 06:12:52;;;;;;;2.80;2.30;;;22.00;54.70;;;-142.21;69.74;112049.66;5115586;28;20196;-78
2022/07/06 06:15:20;;;;;;;1.87;1.67;;;22.10;54.30;;;-142.21;69.57;112049.66;5116127;28;20215;-79
2022/07/06 06:17:48;;;;;;;3.77;2.03;;;22.20;54.20;;;-142.21;68.64;112049.66;5115453;28;20352;-81
2022/07/06 06:20:18;;;;;;;2.90;2.13;;;22.30;54.00;;;-142.21;68.91;112049.66;5116447;28;20231;-78
2022/07/06 06:22:48;;;;;;;2.77;2.10;;;22.40;54.00;;;-142.21;69.50;112049.66;5116102;28;20236;-81
2022/07/06 06:25:16;;;;;;;2.83;1.83;;;22.40;54.20;;;-142.21;68.50;112049.66;5116296;28;20321;-79
2022/07/06 06:27:43;;;;;;;3.63;2.20;;;22.50;53.90;;;-142.21;66.79;112049.66;5115804;28;20235;-79
2022/07/06 06:30:14;;;;;;;2.97;2.00;;;22.50;53.50;;;-142.21;65.86;112049.66;5115936;28;20216;-79
2022/07/06 06:32:41;;;;;;;3.23;1.87;;;22.60;53.30;;;-142.21;68.48;112049.66;5115380;28;20223;-78
2022/07/06 06:35:09;;;;;;;2.40;2.20;;;22.60;53.70;;;-142.21;67.47;112049.66;5115888;28;20769;-80
2022/07/06 06:37:37;;;;;;;3.30;2.17;;;22.70;53.60;;;-142.21;65.58;112049.66;5115250;28;20292;-80
2022/07/06 06:40:06;;;;;;;2.97;2.00;;;22.70;53.10;;;-142.21;66.37;112049.66;5116221;28;20211;-81
2022/07/06 06:42:36;;;;;;;2.60;2.10;;;22.80;53.40;;;-142.21;66.16;112049.66;5115509;28;20280;-80
2022/07/06 06:45:04;;;;;;;2.73;2.23;;;22.80;53.20;;;-142.21;66.04;112049.66;5116120;28;20203;-79
2022/07/06 06:47:33;;;;;;;5.13;2.20;;;22.80;53.10;;;-142.21;65.82;112049.66;5114712;28;20220;-78
2022/07/06 06:50:01;;;;;;;3.27;2.37;;;22.90;53.50;;;-142.21;65.17;112049.66;5095430;28;20216;-80
2022/07/06 06:52:28;;;;;;;3.27;2.27;;;22.90;52.90;;;-142.21;64.58;112049.66;5095456;28;20209;-80
2022/07/06 06:54:55;;;;;;;3.33;2.10;;;22.90;52.70;;;-142.21;64.11;112049.66;5094685;28;20751;-77
2022/07/06 06:57:22;;;;;;;3.50;1.97;;;22.90;52.50;;;-142.21;65.10;112049.66;5095470;28;20277;-78
2022/07/06 06:59:50;;;;;;;3.27;2.10;;;23.00;52.70;;;-142.21;64.39;112049.66;5094787;28;20261;-80
2022/07/06 07:02:17;;;;;;;4.83;2.30;;;23.10;52.70;;;-142.21;64.57;112049.66;5095209;28;20292;-79
2022/07/06 07:04:46;;;;;;;4.33;2.17;;;23.10;52.70;;;-142.21;63.45;112049.66;5094777;28;20214;-79
2022/07/06 07:07:13;;;;;;;3.43;1.93;;;23.10;52.30;;;-142.21;64.09;112049.66;5095383;28;20613;-79
2022/07/06 07:09:40;;;;;;;3.40;1.80;;;23.20;52.50;;;-142.21;64.43;112049.66;5094168;28;20305;-78
2022/07/06 07:12:10;;;;;;;4.17;1.80;;;23.20;52.50;;;-142.21;64.72;112049.66;5095336;28;20249;-77
2022/07/06 07:14:37;;;;;;;2.53;2.20;;;23.30;52.80;;;-142.21;63.80;112049.66;5094299;28;20221;-79
2022/07/06 07:17:04;;;;;;;3.93;2.07;;;23.30;52.50;;;-142.21;64.11;112049.66;5094673;28;20253;-79
2022/07/06 07:19:32;;;;;;;3.17;2.50;;;23.40;52.60;;;-142.21;63.44;112049.66;5075813;28;20200;-80
2022/07/06 07:22:00;;;;;;;3.10;2.20;;;23.50;52.30;;;-142.21;61.48;112049.66;5094986;28;20234;-81
2022/07/06 07:24:28;;;;;;;6.50;2.97;;;23.50;51.80;;;-142.21;61.62;112049.66;5094573;28;20200;-80
2022/07/06 07:26:55;;;;;;;4.03;2.70;;;23.50;51.80;;;-142.21;61.53;112049.66;5094364;28;20261;-80
2022/07/06 07:29:22;;;;;;;2.40;2.13;;;23.60;51.80;;;-142.21;61.53;112049.66;5094325;28;20291;-81
2022/07/06 07:31:50;;;;;;;3.93;2.47;;;23.60;51.80;;;-142.21;61.57;112049.66;5094392;28;20625;-80
2022/07/06 07:34:17;;;;;;;3.30;2.10;;;23.60;51.80;;;-142.21;60.93;112049.66;5094165;28;20228;-77
2022/07/06 07:36:47;;;;;;;2.63;2.00;;;23.70;51.70;;;-142.21;59.48;112049.66;5094169;28;20212;-79
2022/07/06 07:39:16;;;;;;;3.67;2.07;;;23.70;51.30;;;-142.21;58.88;112049.66;5094383;28;20250;-80
2022/07/06 07:41:43;;;;;;;4.63;2.10;;;23.80;51.20;;;-142.21;59.71;112049.66;5094097;28;20204;-79
2022/07/06 07:44:11;;;;;;;6.20;2.30;;;23.80;51.20;;;-142.21;58.97;112049.66;5094368;28;20200;-79
2022/07/06 07:46:38;;;;;;;4.03;2.00;;;23.90;51.00;;;-142.21;59.36;112049.66;5093679;28;20669;-81
2022/07/06 07:49:05;;;;;;;3.20;2.30;;;23.90;51.10;;;-142.21;58.21;112049.66;5094292;28;20228;-80
2022/07/06 07:51:33;;;;;;;2.63;2.10;;;24.00;50.80;;;-142.21;57.75;112049.66;5094586;28;20258;-81
2022/07/06 07:54:00;;;;;;;12.97;2.57;;;24.10;50.60;;;-142.21;57.02;112049.66;5093686;28;20738;-81
2022/07/06 07:56:29;;;;;;;3.20;2.03;;;24.10;50.40;;;-142.21;58.61;112049.66;5094070;28;20196;-80
2022/07/06 07:58:56;;;;;;;4.50;1.97;;;24.20;50.90;;;-142.21;57.97;112049.66;5093237;28;20251;-78
2022/07/06 08:01:23;;;;;;;3.33;1.90;;;24.20;50.60;;;-142.21;56.33;112049.66;5094325;28;20275;-80
2022/07/06 08:03:51;;;;;;;3.63;1.97;;;24.30;50.20;;;-142.21;56.38;112049.66;5093189;28;20207;-79
2022/07/06 08:06:18;;;;;;;2.47;2.10;;;24.30;50.10;;;-142.21;55.55;112049.66;5094096;28;20287;-79
2022/07/06 08:08:45;;;;;;;3.23;2.10;;;24.40;50.00;;;-142.21;56.10;112049.66;5092909;28;20762;-78
2022/07/06 08:11:12;;;;;;;3.23;2.00;;;24.40;50.10;;;-142.21;56.57;112049.66;5114526;28;20235;-79
2022/07/06 08:13:41;;;;;;;3.13;1.70;;;24.50;50.30;;;-142.21;55.75;112049.66;5113606;28;20207;-78
2022/07/06 08:16:09;;;;;;;2.63;2.13;;;24.60;50.60;;;-142.21;54.53;112049.66;5093989;28;20220;-78
2022/07/06 08:18:37;;;;;;;2.70;2.40;;;24.60;49.70;;;-142.21;54.32;112049.66;5093710;28;20208;-78
2022/07/06 08:21:05;;;;;;;4.63;2.17;;;24.70;49.60;;;-142.21;54.03;112049.66;5093723;28;20287;-79
2022/07/06 08:23:34;;;;;;;4.20;2.13;;;24.80;49.50;;;-142.21;55.29;112049.66;5093410;28;20277;-78
2022/07/06 08:26:01;;;;;;;5.27;2.10;;;24.80;49.80;;;-142.21;53.45;112049.66;5093158;28;20602;-78
2022/07/06 08:28:29;;;;;;;2.80;2.30;;;24.80;49.20;;;-142.21;54.72;112049.66;5093485;28;20560;-78
2022/07/06 08:30:58;;;;;;;2.87;2.10;;;24.90;49.50;;;-142.21;55.13;112049.66;5092438;28;20204;-79
2022/07/06 08:33:25;;;;;;;2.43;2.00;;;25.00;49.90;;;-142.21;53.43;112049.66;5093659;28;20208;-78
2022/07/06 08:35:53;;;;;;;2.50;2.30;;;25.00;49.20;;;-142.21;52.26;112049.66;5092811;28;20630;-80
2022/07/06 08:38:20;;;;;;;3.47;2.00;;;25.10;48.90;;;-142.21;54.86;112049.66;5093219;28;20634;-80
2022/07/06 08:40:51;;;;;;;2.70;2.27;;;25.20;49.50;;;-142.21;54.31;112049.66;5093168;28;20257;-78
2022/07/06 08:43:18;;;;;;;4.03;2.17;;;25.30;49.50;;;-142.21;53.19;112049.66;5093333;28;20242;-78
2022/07/06 08:45:50;;;;;;;3.33;2.40;;;25.30;49.10;;;-142.21;51.75;112049.66;5093248;28;20265;-80
2022/07/06 08:48:23;;;;;;;2.77;2.10;;;25.30;48.80;;;-142.21;52.17;112049.66;5093148;28;20220;-79
2022/07/06 08:50:52;;;;;;;3.03;2.20;;;25.40;48.70;;;-142.21;51.13;112049.66;5074594;28;20558;-79
2022/07/06 08:53:21;;;;;;;3.07;2.07;;;25.40;48.20;;;-142.21;51.52;112049.66;5075199;28;20208;-78
2022/07/06 08:55:50;;;;;;;3.20;2.00;;;25.50;48.30;;;-142.21;52.43;112049.66;5092832;28;20232;-79
2022/07/06 08:58:17;;;;;;;6.03;2.30;;;25.60;48.60;;;-142.21;51.86;112049.66;5092723;28;20664;-77
2022/07/06 09:00:45;;;;;;;2.60;1.70;;;25.70;48.50;;;-142.21;50.69;112049.66;5092748;28;20207;-78
2022/07/06 09:03:13;;;;;;;4.17;2.40;;;25.70;48.00;;;-142.21;50.60;112049.66;5092771;28;20240;-78
2022/07/06 09:05:47;;;;;;;2.70;2.07;;;25.80;48.30;;;-142.21;51.18;112049.66;5092741;28;20269;-79
2022/07/06 09:08:14;;;;;;;3.53;1.90;;;25.80;48.40;;;-142.21;51.71;112049.66;5093430;28;20197;-78
2022/07/06 09:10:42;;;;;;;3.80;2.20;;;25.90;48.40;;;-142.21;47.02;112049.66;5092894;28;20249;-79
2022/07/06 09:13:10;;;;;;;3.97;2.00;;;25.90;46.60;;;-142.21;48.33;112049.66;5092860;28;20726;-79
2022/07/06 09:15:39;;;;;;;4.63;2.43;;;25.90;47.20;;;-142.21;47.29;112049.66;5092852;28;20578;-78
2022/07/06 09:18:07;;;;;;;3.63;2.37;;;25.80;46.70;;;-142.21;47.69;112049.66;5092551;28;20204;-78
2022/07/06 09:20:35;;;;;;;4.77;2.27;;;25.70;46.80;;;-142.21;46.07;112049.66;5092454;28;20214;-80
2022/07/06 09:23:06;;;;;;;4.87;2.30;;;25.80;46.60;;;-142.21;45.50;112049.66;5092418;28;20615;-77
2022/07/06 09:25:34;;;;;;;3.43;2.03;;;25.60;45.80;;;-142.21;47.68;112049.66;5092513;28;20540;-77
2022/07/06 09:28:05;;;;;;;5.90;3.33;;;25.60;47.10;;;-142.21;48.72;112049.66;5091953;28;20208;-80
2022/07/06 09:30:39;;;;;;;2.33;2.03;;;25.70;47.50;;;-142.21;47.37;112049.66;5092482;28;20203;-78
2022/07/06 09:33:10;;;;;;;2.73;1.90;;;25.90;46.90;;;-142.21;46.43;112049.66;5092709;28;20188;-80
2022/07/06 09:35:39;;;;;;;2.80;1.93;;;26.00;46.50;;;-142.21;45.41;112049.66;5092303;28;20277;-77
2022/07/06 09:38:11;;;;;;;4.80;2.17;;;26.20;46.00;;;-142.21;45.58;112049.66;5092333;28;20634;-80
2022/07/06 09:40:41;;;;;;;3.57;2.03;;;26.30;45.90;;;-142.21;45.95;112049.66;5092321;28;20276;-79
2022/07/06 09:43:14;;;;;;;4.13;2.20;;;26.40;45.90;;;-142.21;45.71;112049.66;5091792;28;20176;-77
2022/07/06 09:45:44;;;;;;;2.77;2.10;;;26.50;46.10;;;-142.21;44.98;112049.66;5091881;28;20219;-80
2022/07/06 09:48:14;;;;;;;4.50;2.27;;;26.60;45.40;;;-142.21;44.32;112049.66;5092125;28;20228;-77
2022/07/06 09:50:48;;;;;;;4.07;2.30;;;26.70;45.80;;;-142.21;44.63;112049.66;5091811;28;20215;-79
2022/07/06 09:53:19;;;;;;;3.10;1.90;;;26.80;45.10;;;-142.21;43.93;112049.66;5111563;28;20265;-78
2022/07/06 09:55:51;;;;;;;3.43;2.13;;;26.80;45.30;;;-142.21;43.58;112049.66;5111717;28;20248;-79
2022/07/06 09:58:21;;;;;;;3.10;2.17;;;26.90;44.70;;;-142.21;43.64;112049.66;5112896;28;20191;-81
2022/07/06 10:00:50;;;;;;;2.87;1.90;;;27.10;44.80;;;-142.21;42.92;112049.66;5112248;28;20570;-80
2022/07/06 10:03:18;;;;;;;2.17;1.53;;;27.10;44.30;;;-142.21;43.89;112049.66;5112652;28;20282;-81
2022/07/06 10:05:49;;;;;;;3.23;2.50;;;27.20;44.70;;;-142.21;41.92;112049.66;5111916;28;20207;-79
2022/07/06 10:08:21;;;;;;;2.17;1.90;;;27.20;43.70;;;-142.21;42.42;112049.66;5112553;28;20204;-78